sensor_id;sensor_type;location;lat;lon;timestamp;P1;P2;P0
34176;PMS7003;20450;49.074;9.158;2022-12-29T00:00:45;3.00;3.00;3.00
34176;PMS7003;20450;49.074;9.158;2022-12-29T00:03:12;3.00;3.00;2.00
34176;PMS7003;20450;49.074;9.158;2022-12-29T00:05:39;2.50;1.75;1.75
34176;PMS7003;20450;49.074;9.158;2022-12-29T00:08:06;2.25;2.25;2.25
34176;PMS7003;20450;49.074;9.158;2022-12-29T00:10:33;2.00;2.00;2.00
34176;PMS7003;20450;49.074;9.158;2022-12-29T00:13:01;2.25;2.25;2.00
34176;PMS7003;20450;49.074;9.158;2022-12-29T00:15:28;4.25;3.00;2.00
34176;PMS7003;20450;49.074;9.158;2022-12-29T00:17:55;3.00;3.00;2.00
34176;PMS7003;20450;49.074;9.158;2022-12-29T00:20:22;2.75;2.75;2.00
34176;PMS7003;20450;49.074;9.158;2022-12-29T00:22:49;4.25;4.25;3.75
34176;PMS7003;20450;49.074;9.158;2022-12-29T00:25:16;3.00;2.00;2.00
34176;PMS7003;20450;49.074;9.158;2022-12-29T00:27:43;4.75;4.75;2.75
34176;PMS7003;20450;49.074;9.158;2022-12-29T00:30:13;2.00;2.00;1.00
34176;PMS7003;20450;49.074;9.158;2022-12-29T00:32:42;2.00;2.00;2.00
34176;PMS7003;20450;49.074;9.158;2022-12-29T00:35:10;4.50;3.00;2.50
34176;PMS7003;20450;49.074;9.158;2022-12-29T00:37:45;6.50;4.25;3.50
34176;PMS7003;20450;49.074;9.158;2022-12-29T00:40:14;3.00;3.00;2.75
34176;PMS7003;20450;49.074;9.158;2022-12-29T00:42:41;2.50;2.50;2.00
34176;PMS7003;20450;49.074;9.158;2022-12-29T00:45:08;2.75;2.75;2.75
34176;PMS7003;20450;49.074;9.158;2022-12-29T00:47:36;2.00;2.00;1.00
34176;PMS7003;20450;49.074;9.158;2022-12-29T00:50:04;4.00;2.50;2.50
34176;PMS7003;20450;49.074;9.158;2022-12-29T00:52:31;2.00;2.00;2.00
34176;PMS7003;20450;49.074;9.158;2022-12-29T00:54:58;2.00;2.00;2.00
34176;PMS7003;20450;49.074;9.158;2022-12-29T00:57:25;3.00;3.00;2.75
34176;PMS7003;20450;49.074;9.158;2022-12-29T00:59:52;3.75;3.75;3.75
34176;PMS7003;20450;49.074;9.158;2022-12-29T01:02:19;4.00;4.00;2.00
34176;PMS7003;20450;49.074;9.158;2022-12-29T01:04:47;2.00;2.00;1.75
34176;PMS7003;20450;49.074;9.158;2022-12-29T01:07:15;5.00;3.50;3.00
34176;PMS7003;20450;49.074;9.158;2022-12-29T01:09:44;3.00;3.00;2.00
34176;PMS7003;20450;49.074;9.158;2022-12-29T01:12:10;2.00;2.00;1.75
34176;PMS7003;20450;49.074;9.158;2022-12-29T01:14:40;1.75;1.75;1.00
34176;PMS7003;20450;49.074;9.158;2022-12-29T01:17:07;2.00;2.00;1.75
34176;PMS7003;20450;49.074;9.158;2022-12-29T01:19:34;1.00;1.00;0.50
34176;PMS7003;20450;49.074;9.158;2022-12-29T01:22:02;1.25;1.25;1.25
34176;PMS7003;20450;49.074;9.158;2022-12-29T01:24:29;2.75;2.25;2.00
34176;PMS7003;20450;49.074;9.158;2022-12-29T01:26:55;3.00;2.25;1.75
34176;PMS7003;20450;49.074;9.158;2022-12-29T01:29:22;2.25;2.00;2.00
34176;PMS7003;20450;49.074;9.158;2022-12-29T01:31:50;1.75;1.75;1.25
34176;PMS7003;20450;49.074;9.158;2022-12-29T01:34:17;2.00;2.00;2.00
34176;PMS7003;20450;49.074;9.158;2022-12-29T01:36:44;3.00;2.00;1.25
34176;PMS7003;20450;49.074;9.158;2022-12-29T01:39:13;3.50;2.50;2.50
34176;PMS7003;20450;49.074;9.158;2022-12-29T01:41:40;1.00;1.00;1.00
34176;PMS7003;20450;49.074;9.158;2022-12-29T01:47:18;4.00;2.00;1.50
34176;PMS7003;20450;49.074;9.158;2022-12-29T01:49:56;1.00;1.00;1.00
34176;PMS7003;20450;49.074;9.158;2022-12-29T01:52:29;2.00;2.00;2.00
34176;PMS7003;20450;49.074;9.158;2022-12-29T01:55:03;2.00;2.00;2.00
34176;PMS7003;20450;49.074;9.158;2022-12-29T01:57:34;2.50;2.50;2.00
34176;PMS7003;20450;49.074;9.158;2022-12-29T02:00:10;2.75;2.75;2.25
34176;PMS7003;20450;49.074;9.158;2022-12-29T02:02:40;2.25;1.75;1.00
34176;PMS7003;20450;49.074;9.158;2022-12-29T02:05:14;1.50;1.50;1.00
34176;PMS7003;20450;49.074;9.158;2022-12-29T02:07:50;2.00;2.00;1.25
34176;PMS7003;20450;49.074;9.158;2022-12-29T02:10:21;1.00;1.00;1.00
34176;PMS7003;20450;49.074;9.158;2022-12-29T02:12:52;2.00;2.00;2.00
34176;PMS7003;20450;49.074;9.158;2022-12-29T02:15:23;3.00;3.00;2.00
34176;PMS7003;20450;49.074;9.158;2022-12-29T02:18:10;2.25;2.25;2.00
34176;PMS7003;20450;49.074;9.158;2022-12-29T02:24:16;4.25;2.75;2.50
34176;PMS7003;20450;49.074;9.158;2022-12-29T02:27:29;1.75;1.75;1.50
34176;PMS7003;20450;49.074;9.158;2022-12-29T02:30:16;1.00;1.00;0.50
34176;PMS7003;20450;49.074;9.158;2022-12-29T02:33:13;2.00;2.00;2.00
34176;PMS7003;20450;49.074;9.158;2022-12-29T02:35:56;2.75;2.75;2.00
34176;PMS7003;20450;49.074;9.158;2022-12-29T02:38:44;3.25;3.25;2.50
34176;PMS7003;20450;49.074;9.158;2022-12-29T02:41:21;2.00;2.00;1.00
34176;PMS7003;20450;49.074;9.158;2022-12-29T02:43:59;3.50;2.75;2.50
34176;PMS7003;20450;49.074;9.158;2022-12-29T02:46:41;3.50;3.00;2.00
34176;PMS7003;20450;49.074;9.158;2022-12-29T02:49:18;7.50;6.00;5.00
34176;PMS7003;20450;49.074;9.158;2022-12-29T02:51:54;3.50;3.50;3.25
34176;PMS7003;20450;49.074;9.158;2022-12-29T02:54:29;4.25;4.00;3.50
34176;PMS7003;20450;49.074;9.158;2022-12-29T02:56:57;4.00;4.00;3.25
34176;PMS7003;20450;49.074;9.158;2022-12-29T02:59:24;5.50;5.50;4.50
34176;PMS7003;20450;49.074;9.158;2022-12-29T03:02:06;5.75;4.00;3.00
34176;PMS7003;20450;49.074;9.158;2022-12-29T03:05:11;5.00;5.00;4.25
34176;PMS7003;20450;49.074;9.158;2022-12-29T03:07:58;9.50;7.50;6.50
34176;PMS7003;20450;49.074;9.158;2022-12-29T03:10:40;7.25;7.25;6.25
34176;PMS7003;20450;49.074;9.158;2022-12-29T03:13:20;6.75;5.50;3.00
34176;PMS7003;20450;49.074;9.158;2022-12-29T03:16:00;3.00;3.00;2.75
34176;PMS7003;20450;49.074;9.158;2022-12-29T03:18:45;3.75;2.50;2.00
34176;PMS7003;20450;49.074;9.158;2022-12-29T03:21:25;2.00;2.00;1.00
34176;PMS7003;20450;49.074;9.158;2022-12-29T03:24:04;1.25;1.25;1.00
34176;PMS7003;20450;49.074;9.158;2022-12-29T03:26:32;2.00;2.00;1.50
34176;PMS7003;20450;49.074;9.158;2022-12-29T03:28:59;1.75;1.75;1.75
34176;PMS7003;20450;49.074;9.158;2022-12-29T03:31:28;2.00;2.00;1.75
34176;PMS7003;20450;49.074;9.158;2022-12-29T03:33:57;1.50;1.50;1.25
34176;PMS7003;20450;49.074;9.158;2022-12-29T03:36:26;1.25;1.25;1.00
34176;PMS7003;20450;49.074;9.158;2022-12-29T03:39:05;1.00;1.00;1.00
34176;PMS7003;20450;49.074;9.158;2022-12-29T03:41:37;4.25;2.25;2.00
34176;PMS7003;20450;49.074;9.158;2022-12-29T03:44:10;1.00;1.00;1.00
34176;PMS7003;20450;49.074;9.158;2022-12-29T03:46:39;2.00;2.00;1.25
34176;PMS7003;20450;49.074;9.158;2022-12-29T03:49:08;1.50;1.25;1.00
34176;PMS7003;20450;49.074;9.158;2022-12-29T03:51:35;0.50;0.50;0.50
34176;PMS7003;20450;49.074;9.158;2022-12-29T03:54:04;1.00;1.00;1.00
34176;PMS7003;20450;49.074;9.158;2022-12-29T03:56:32;2.00;1.00;0.00
34176;PMS7003;20450;49.074;9.158;2022-12-29T03:59:00;3.00;2.00;1.00
34176;PMS7003;20450;49.074;9.158;2022-12-29T04:01:31;1.25;1.25;1.25
34176;PMS7003;20450;49.074;9.158;2022-12-29T04:03:58;1.00;1.00;1.00
34176;PMS7003;20450;49.074;9.158;2022-12-29T04:06:26;1.00;1.00;1.00
34176;PMS7003;20450;49.074;9.158;2022-12-29T04:08:59;2.00;2.00;2.00
34176;PMS7003;20450;49.074;9.158;2022-12-29T04:11:29;3.00;3.00;2.75
34176;PMS7003;20450;49.074;9.158;2022-12-29T04:14:02;1.25;1.25;1.00
34176;PMS7003;20450;49.074;9.158;2022-12-29T04:16:30;2.00;1.00;1.00
34176;PMS7003;20450;49.074;9.158;2022-12-29T04:18:58;2.00;2.00;1.25
34176;PMS7003;20450;49.074;9.158;2022-12-29T04:21:25;2.00;2.00;1.00
34176;PMS7003;20450;49.074;9.158;2022-12-29T04:23:53;2.50;2.50;1.00
34176;PMS7003;20450;49.074;9.158;2022-12-29T04:26:21;1.00;1.00;0.75
34176;PMS7003;20450;49.074;9.158;2022-12-29T04:29:08;2.00;1.00;1.00
34176;PMS7003;20450;49.074;9.158;2022-12-29T04:31:52;1.50;1.50;1.50
34176;PMS7003;20450;49.074;9.158;2022-12-29T04:34:19;1.00;1.00;1.00
34176;PMS7003;20450;49.074;9.158;2022-12-29T04:36:48;1.75;1.50;1.00
34176;PMS7003;20450;49.074;9.158;2022-12-29T04:39:17;2.75;2.00;1.75
34176;PMS7003;20450;49.074;9.158;2022-12-29T04:41:44;1.00;1.00;1.00
34176;PMS7003;20450;49.074;9.158;2022-12-29T04:44:15;1.75;1.75;1.75
34176;PMS7003;20450;49.074;9.158;2022-12-29T04:46:46;1.00;1.00;0.75
34176;PMS7003;20450;49.074;9.158;2022-12-29T04:49:36;1.75;1.00;1.00
34176;PMS7003;20450;49.074;9.158;2022-12-29T04:52:16;1.00;1.00;1.00
34176;PMS7003;20450;49.074;9.158;2022-12-29T04:54:44;1.00;1.00;1.00
34176;PMS7003;20450;49.074;9.158;2022-12-29T04:57:16;2.00;2.00;2.00
34176;PMS7003;20450;49.074;9.158;2022-12-29T04:59:49;1.00;1.00;1.00
34176;PMS7003;20450;49.074;9.158;2022-12-29T05:02:17;2.50;2.25;1.00
34176;PMS7003;20450;49.074;9.158;2022-12-29T05:04:45;1.50;1.25;1.00
34176;PMS7003;20450;49.074;9.158;2022-12-29T05:07:14;5.25;4.00;3.00
34176;PMS7003;20450;49.074;9.158;2022-12-29T05:09:44;1.00;1.00;1.00
34176;PMS7003;20450;49.074;9.158;2022-12-29T05:12:11;1.00;1.00;1.00
34176;PMS7003;20450;49.074;9.158;2022-12-29T05:14:46;2.00;2.00;1.50
34176;PMS7003;20450;49.074;9.158;2022-12-29T05:17:13;2.00;2.00;2.00
34176;PMS7003;20450;49.074;9.158;2022-12-29T05:19:40;1.00;1.00;1.00
34176;PMS7003;20450;49.074;9.158;2022-12-29T05:22:08;1.00;1.00;1.00
34176;PMS7003;20450;49.074;9.158;2022-12-29T05:24:36;1.00;1.00;1.00
34176;PMS7003;20450;49.074;9.158;2022-12-29T05:27:05;1.00;1.00;0.75
34176;PMS7003;20450;49.074;9.158;2022-12-29T05:29:53;1.00;0.00;0.00
34176;PMS7003;20450;49.074;9.158;2022-12-29T05:32:20;0.00;0.00;0.00
34176;PMS7003;20450;49.074;9.158;2022-12-29T05:34:47;1.00;1.00;1.00
34176;PMS7003;20450;49.074;9.158;2022-12-29T05:37:16;0.33;0.33;0.00
34176;PMS7003;20450;49.074;9.158;2022-12-29T05:39:43;1.00;1.00;0.00
34176;PMS7003;20450;49.074;9.158;2022-12-29T05:42:12;1.00;1.00;1.00
34176;PMS7003;20450;49.074;9.158;2022-12-29T05:45:11;1.00;1.00;0.00
34176;PMS7003;20450;49.074;9.158;2022-12-29T05:47:54;1.00;1.00;0.00
34176;PMS7003;20450;49.074;9.158;2022-12-29T05:50:39;0.67;0.67;0.00
34176;PMS7003;20450;49.074;9.158;2022-12-29T05:53:13;1.33;1.33;1.00
34176;PMS7003;20450;49.074;9.158;2022-12-29T05:55:41;1.00;1.00;1.00
34176;PMS7003;20450;49.074;9.158;2022-12-29T05:58:16;1.00;0.25;0.00
34176;PMS7003;20450;49.074;9.158;2022-12-29T06:00:44;2.00;1.00;1.00
34176;PMS7003;20450;49.074;9.158;2022-12-29T06:03:12;1.00;1.00;1.00
34176;PMS7003;20450;49.074;9.158;2022-12-29T06:05:40;1.00;1.00;1.00
34176;PMS7003;20450;49.074;9.158;2022-12-29T06:08:07;1.33;1.33;1.33
34176;PMS7003;20450;49.074;9.158;2022-12-29T06:10:34;3.00;3.00;3.00
34176;PMS7003;20450;49.074;9.158;2022-12-29T06:13:03;3.00;1.67;1.00
34176;PMS7003;20450;49.074;9.158;2022-12-29T06:15:35;1.00;1.00;1.00
34176;PMS7003;20450;49.074;9.158;2022-12-29T06:18:06;3.00;3.00;2.00
34176;PMS7003;20450;49.074;9.158;2022-12-29T06:20:33;1.25;1.25;1.00
34176;PMS7003;20450;49.074;9.158;2022-12-29T06:23:03;2.00;2.00;1.33
34176;PMS7003;20450;49.074;9.158;2022-12-29T06:25:30;1.67;1.67;1.67
34176;PMS7003;20450;49.074;9.158;2022-12-29T06:27:57;1.67;1.67;1.00
34176;PMS7003;20450;49.074;9.158;2022-12-29T06:30:24;2.00;2.00;2.00
34176;PMS7003;20450;49.074;9.158;2022-12-29T06:32:53;2.00;2.00;1.33
34176;PMS7003;20450;49.074;9.158;2022-12-29T06:35:20;2.00;2.00;2.00
34176;PMS7003;20450;49.074;9.158;2022-12-29T06:37:50;2.00;2.00;1.00
34176;PMS7003;20450;49.074;9.158;2022-12-29T06:40:18;1.00;1.00;1.00
34176;PMS7003;20450;49.074;9.158;2022-12-29T06:43:14;3.00;2.00;1.00
34176;PMS7003;20450;49.074;9.158;2022-12-29T06:45:57;0.67;0.67;0.67
34176;PMS7003;20450;49.074;9.158;2022-12-29T06:48:25;2.00;2.00;1.67
34176;PMS7003;20450;49.074;9.158;2022-12-29T06:50:52;0.67;0.67;0.67
34176;PMS7003;20450;49.074;9.158;2022-12-29T06:53:19;2.00;2.00;2.00
34176;PMS7003;20450;49.074;9.158;2022-12-29T06:55:46;2.67;1.00;1.00
34176;PMS7003;20450;49.074;9.158;2022-12-29T06:58:13;1.00;1.00;1.00
34176;PMS7003;20450;49.074;9.158;2022-12-29T07:00:41;7.00;1.67;1.00
34176;PMS7003;20450;49.074;9.158;2022-12-29T07:03:08;1.00;1.00;1.00
34176;PMS7003;20450;49.074;9.158;2022-12-29T07:05:36;1.00;1.00;1.00
34176;PMS7003;20450;49.074;9.158;2022-12-29T07:08:03;1.00;1.00;0.67
34176;PMS7003;20450;49.074;9.158;2022-12-29T07:10:30;0.00;0.00;0.00
34176;PMS7003;20450;49.074;9.158;2022-12-29T07:12:57;2.33;1.33;1.00
34176;PMS7003;20450;49.074;9.158;2022-12-29T07:15:24;1.33;1.33;1.00
34176;PMS7003;20450;49.074;9.158;2022-12-29T07:17:51;5.00;1.67;1.00
34176;PMS7003;20450;49.074;9.158;2022-12-29T07:20:18;2.00;2.00;2.00
34176;PMS7003;20450;49.074;9.158;2022-12-29T07:22:53;1.67;1.67;1.33
34176;PMS7003;20450;49.074;9.158;2022-12-29T07:25:20;2.33;2.33;2.00
34176;PMS7003;20450;49.074;9.158;2022-12-29T07:27:48;2.67;1.00;1.00
34176;PMS7003;20450;49.074;9.158;2022-12-29T07:30:15;3.67;3.00;2.00
34176;PMS7003;20450;49.074;9.158;2022-12-29T07:32:42;5.25;5.25;4.25
34176;PMS7003;20450;49.074;9.158;2022-12-29T07:35:09;7.75;6.75;6.25
34176;PMS7003;20450;49.074;9.158;2022-12-29T07:37:36;0.00;0.00;0.00
34176;PMS7003;20450;49.074;9.158;2022-12-29T07:40:05;8.00;6.25;6.00
34176;PMS7003;20450;49.074;9.158;2022-12-29T07:42:35;7.00;6.00;5.00
34176;PMS7003;20450;49.074;9.158;2022-12-29T07:45:02;2.00;2.00;2.00
34176;PMS7003;20450;49.074;9.158;2022-12-29T07:47:36;3.00;3.00;2.00
34176;PMS7003;20450;49.074;9.158;2022-12-29T07:50:03;2.67;2.67;2.33
34176;PMS7003;20450;49.074;9.158;2022-12-29T07:52:31;1.00;1.00;1.00
34176;PMS7003;20450;49.074;9.158;2022-12-29T07:54:58;2.00;1.00;0.67
34176;PMS7003;20450;49.074;9.158;2022-12-29T07:57:27;2.00;2.00;2.00
34176;PMS7003;20450;49.074;9.158;2022-12-29T07:59:57;2.00;2.00;1.67
34176;PMS7003;20450;49.074;9.158;2022-12-29T08:02:25;3.00;2.00;2.00
34176;PMS7003;20450;49.074;9.158;2022-12-29T08:04:53;2.00;2.00;2.00
34176;PMS7003;20450;49.074;9.158;2022-12-29T08:07:20;2.00;2.00;1.00
34176;PMS7003;20450;49.074;9.158;2022-12-29T08:09:47;2.00;1.00;1.00
34176;PMS7003;20450;49.074;9.158;2022-12-29T08:12:14;2.67;2.67;2.67
34176;PMS7003;20450;49.074;9.158;2022-12-29T08:14:43;1.00;1.00;1.00
34176;PMS7003;20450;49.074;9.158;2022-12-29T08:17:10;3.00;1.00;1.00
34176;PMS7003;20450;49.074;9.158;2022-12-29T08:19:37;4.33;4.33;3.67
34176;PMS7003;20450;49.074;9.158;2022-12-29T08:22:04;4.67;4.67;2.67
34176;PMS7003;20450;49.074;9.158;2022-12-29T08:24:31;5.00;3.00;3.00
34176;PMS7003;20450;49.074;9.158;2022-12-29T08:26:58;2.33;1.33;1.00
34176;PMS7003;20450;49.074;9.158;2022-12-29T08:29:34;4.00;4.00;2.33
34176;PMS7003;20450;49.074;9.158;2022-12-29T08:32:03;1.67;1.00;1.00
34176;PMS7003;20450;49.074;9.158;2022-12-29T08:34:30;1.33;1.00;0.00
34176;PMS7003;20450;49.074;9.158;2022-12-29T08:36:57;1.67;1.00;1.00
34176;PMS7003;20450;49.074;9.158;2022-12-29T08:39:32;2.33;2.33;2.00
34176;PMS7003;20450;49.074;9.158;2022-12-29T08:41:59;2.33;2.33;2.33
34176;PMS7003;20450;49.074;9.158;2022-12-29T08:44:26;3.00;3.00;3.00
34176;PMS7003;20450;49.074;9.158;2022-12-29T08:46:53;10.75;10.75;10.75
34176;PMS7003;20450;49.074;9.158;2022-12-29T08:49:21;3.67;3.67;3.00
34176;PMS7003;20450;49.074;9.158;2022-12-29T08:51:48;6.00;6.00;4.67
34176;PMS7003;20450;49.074;9.158;2022-12-29T08:54:15;0.00;0.00;0.00
34176;PMS7003;20450;49.074;9.158;2022-12-29T08:56:42;2.33;2.33;2.33
34176;PMS7003;20450;49.074;9.158;2022-12-29T08:59:09;2.33;2.00;1.67
34176;PMS7003;20450;49.074;9.158;2022-12-29T09:01:36;7.50;7.50;6.75
34176;PMS7003;20450;49.074;9.158;2022-12-29T09:04:04;10.75;9.50;8.75
34176;PMS7003;20450;49.074;9.158;2022-12-29T09:06:43;15.00;13.25;12.25
34176;PMS7003;20450;49.074;9.158;2022-12-29T09:09:10;6.00;6.00;5.00
34176;PMS7003;20450;49.074;9.158;2022-12-29T09:11:38;23.25;23.25;21.75
34176;PMS7003;20450;49.074;9.158;2022-12-29T09:14:05;13.25;13.25;13.25
34176;PMS7003;20450;49.074;9.158;2022-12-29T09:16:32;39.25;36.25;30.25
34176;PMS7003;20450;49.074;9.158;2022-12-29T09:19:00;21.75;21.75;20.50
34176;PMS7003;20450;49.074;9.158;2022-12-29T09:21:27;4.50;4.50;3.75
34176;PMS7003;20450;49.074;9.158;2022-12-29T09:23:56;5.50;5.50;5.50
34176;PMS7003;20450;49.074;9.158;2022-12-29T09:26:22;14.00;14.00;14.00
34176;PMS7003;20450;49.074;9.158;2022-12-29T09:28:50;30.75;30.75;26.50
34176;PMS7003;20450;49.074;9.158;2022-12-29T09:31:17;38.25;36.25;31.00
34176;PMS7003;20450;49.074;9.158;2022-12-29T09:33:44;29.00;29.00;25.00
34176;PMS7003;20450;49.074;9.158;2022-12-29T09:36:11;11.25;11.25;11.25
34176;PMS7003;20450;49.074;9.158;2022-12-29T09:38:38;8.50;8.50;7.50
34176;PMS7003;20450;49.074;9.158;2022-12-29T09:41:06;14.50;13.50;12.25
34176;PMS7003;20450;49.074;9.158;2022-12-29T09:43:45;7.25;7.25;7.00
34176;PMS7003;20450;49.074;9.158;2022-12-29T09:46:26;5.75;5.75;5.75
34176;PMS7003;20450;49.074;9.158;2022-12-29T09:48:57;4.25;3.25;2.25
34176;PMS7003;20450;49.074;9.158;2022-12-29T09:51:39;1.25;1.25;1.25
34176;PMS7003;20450;49.074;9.158;2022-12-29T09:54:19;1.67;1.67;1.33
34176;PMS7003;20450;49.074;9.158;2022-12-29T09:57:04;0.50;0.50;0.50
34176;PMS7003;20450;49.074;9.158;2022-12-29T09:59:41;1.25;0.75;0.75
34176;PMS7003;20450;49.074;9.158;2022-12-29T10:02:23;1.25;1.25;1.25
34176;PMS7003;20450;49.074;9.158;2022-12-29T10:05:03;3.00;1.25;1.25
34176;PMS7003;20450;49.074;9.158;2022-12-29T10:08:00;0.00;0.00;0.00
34176;PMS7003;20450;49.074;9.158;2022-12-29T10:10:45;0.25;0.25;0.25
34176;PMS7003;20450;49.074;9.158;2022-12-29T10:13:27;1.00;1.00;0.00
34176;PMS7003;20450;49.074;9.158;2022-12-29T10:16:09;2.00;1.00;1.00
34176;PMS7003;20450;49.074;9.158;2022-12-29T10:18:49;0.00;0.00;0.00
34176;PMS7003;20450;49.074;9.158;2022-12-29T10:21:34;0.00;0.00;0.00
34176;PMS7003;20450;49.074;9.158;2022-12-29T10:24:20;1.25;1.25;0.50
34176;PMS7003;20450;49.074;9.158;2022-12-29T10:26:49;2.00;0.75;0.00
34176;PMS7003;20450;49.074;9.158;2022-12-29T10:29:20;0.75;0.75;0.75
34176;PMS7003;20450;49.074;9.158;2022-12-29T10:31:54;1.00;1.00;0.75
34176;PMS7003;20450;49.074;9.158;2022-12-29T10:34:27;0.75;0.75;0.50
34176;PMS7003;20450;49.074;9.158;2022-12-29T10:37:03;1.00;1.00;1.00
34176;PMS7003;20450;49.074;9.158;2022-12-29T10:39:42;1.00;1.00;1.00
34176;PMS7003;20450;49.074;9.158;2022-12-29T10:42:19;0.75;0.75;0.75
34176;PMS7003;20450;49.074;9.158;2022-12-29T10:44:54;0.00;0.00;0.00
34176;PMS7003;20450;49.074;9.158;2022-12-29T10:47:25;1.75;0.75;0.75
34176;PMS7003;20450;49.074;9.158;2022-12-29T10:49:57;0.25;0.25;0.00
34176;PMS7003;20450;49.074;9.158;2022-12-29T10:52:27;0.00;0.00;0.00
34176;PMS7003;20450;49.074;9.158;2022-12-29T10:55:00;0.50;0.50;0.00
34176;PMS7003;20450;49.074;9.158;2022-12-29T10:57:32;1.00;1.00;1.00
34176;PMS7003;20450;49.074;9.158;2022-12-29T11:00:10;0.00;0.00;0.00
34176;PMS7003;20450;49.074;9.158;2022-12-29T11:02:46;0.50;0.50;0.50
34176;PMS7003;20450;49.074;9.158;2022-12-29T11:05:46;0.75;0.00;0.00
34176;PMS7003;20450;49.074;9.158;2022-12-29T11:08:24;1.00;1.00;1.00
34176;PMS7003;20450;49.074;9.158;2022-12-29T11:10:58;0.75;0.75;0.00
34176;PMS7003;20450;49.074;9.158;2022-12-29T11:13:30;1.25;0.00;0.00
34176;PMS7003;20450;49.074;9.158;2022-12-29T11:16:06;0.00;0.00;0.00
34176;PMS7003;20450;49.074;9.158;2022-12-29T11:18:39;1.00;1.00;1.00
34176;PMS7003;20450;49.074;9.158;2022-12-29T11:21:23;1.00;1.00;1.00
34176;PMS7003;20450;49.074;9.158;2022-12-29T11:23:57;0.25;0.25;0.00
34176;PMS7003;20450;49.074;9.158;2022-12-29T11:26:30;0.00;0.00;0.00
34176;PMS7003;20450;49.074;9.158;2022-12-29T11:31:53;1.00;1.00;1.00
34176;PMS7003;20450;49.074;9.158;2022-12-29T11:34:24;0.25;0.25;0.25
34176;PMS7003;20450;49.074;9.158;2022-12-29T11:36:58;0.75;0.75;0.75
34176;PMS7003;20450;49.074;9.158;2022-12-29T11:39:30;3.50;2.75;2.25
34176;PMS7003;20450;49.074;9.158;2022-12-29T11:42:03;2.75;2.75;2.00
34176;PMS7003;20450;49.074;9.158;2022-12-29T11:44:41;6.75;3.00;2.00
34176;PMS7003;20450;49.074;9.158;2022-12-29T11:47:20;4.25;4.25;3.00
34176;PMS7003;20450;49.074;9.158;2022-12-29T11:49:56;2.25;2.25;2.00
34176;PMS7003;20450;49.074;9.158;2022-12-29T11:52:27;1.75;1.75;1.00
34176;PMS7003;20450;49.074;9.158;2022-12-29T11:55:04;3.75;3.75;3.00
34176;PMS7003;20450;49.074;9.158;2022-12-29T11:57:43;2.75;2.75;1.00
34176;PMS7003;20450;49.074;9.158;2022-12-29T12:00:14;1.00;1.00;1.00
34176;PMS7003;20450;49.074;9.158;2022-12-29T12:02:47;2.00;2.00;1.00
34176;PMS7003;20450;49.074;9.158;2022-12-29T12:05:24;1.00;1.00;0.50
34176;PMS7003;20450;49.074;9.158;2022-12-29T12:08:07;1.00;1.00;1.00
34176;PMS7003;20450;49.074;9.158;2022-12-29T12:10:50;2.75;1.75;1.00
34176;PMS7003;20450;49.074;9.158;2022-12-29T12:13:34;1.00;1.00;1.00
34176;PMS7003;20450;49.074;9.158;2022-12-29T12:16:09;1.00;1.00;0.75
34176;PMS7003;20450;49.074;9.158;2022-12-29T12:18:46;0.50;0.50;0.00
34176;PMS7003;20450;49.074;9.158;2022-12-29T12:21:21;0.25;0.25;0.25
34176;PMS7003;20450;49.074;9.158;2022-12-29T12:24:04;1.50;1.50;1.00
34176;PMS7003;20450;49.074;9.158;2022-12-29T12:26:51;1.75;1.50;1.00
34176;PMS7003;20450;49.074;9.158;2022-12-29T12:29:25;1.25;1.25;1.00
34176;PMS7003;20450;49.074;9.158;2022-12-29T12:35:10;0.00;0.00;0.00
34176;PMS7003;20450;49.074;9.158;2022-12-29T12:37:50;1.25;1.25;1.25
34176;PMS7003;20450;49.074;9.158;2022-12-29T12:40:45;0.67;0.67;0.67
34176;PMS7003;20450;49.074;9.158;2022-12-29T12:43:34;1.00;1.00;1.00
34176;PMS7003;20450;49.074;9.158;2022-12-29T12:46:14;2.50;2.50;1.75
34176;PMS7003;20450;49.074;9.158;2022-12-29T12:49:17;3.75;3.75;2.50
34176;PMS7003;20450;49.074;9.158;2022-12-29T12:52:38;0.75;0.75;0.50
34176;PMS7003;20450;49.074;9.158;2022-12-29T12:55:34;1.00;1.00;1.00
34176;PMS7003;20450;49.074;9.158;2022-12-29T12:58:31;1.00;1.00;1.00
34176;PMS7003;20450;49.074;9.158;2022-12-29T13:01:18;1.00;1.00;1.00
34176;PMS7003;20450;49.074;9.158;2022-12-29T13:07:11;0.75;0.75;0.75
34176;PMS7003;20450;49.074;9.158;2022-12-29T13:09:57;1.00;1.00;1.00
34176;PMS7003;20450;49.074;9.158;2022-12-29T13:12:47;3.00;3.00;2.00
34176;PMS7003;20450;49.074;9.158;2022-12-29T13:15:35;2.75;2.75;2.50
34176;PMS7003;20450;49.074;9.158;2022-12-29T13:18:17;3.00;2.00;2.00
34176;PMS7003;20450;49.074;9.158;2022-12-29T13:20:59;1.75;1.00;1.00
34176;PMS7003;20450;49.074;9.158;2022-12-29T13:23:38;3.00;2.00;2.00
34176;PMS7003;20450;49.074;9.158;2022-12-29T13:26:19;0.50;0.50;0.50
34176;PMS7003;20450;49.074;9.158;2022-12-29T13:28:55;2.00;1.00;1.00
34176;PMS7003;20450;49.074;9.158;2022-12-29T13:31:33;2.00;1.75;1.25
34176;PMS7003;20450;49.074;9.158;2022-12-29T13:34:15;6.75;6.75;6.25
34176;PMS7003;20450;49.074;9.158;2022-12-29T13:36:56;2.25;2.00;2.00
34176;PMS7003;20450;49.074;9.158;2022-12-29T13:39:30;1.50;1.50;1.25
34176;PMS7003;20450;49.074;9.158;2022-12-29T13:42:04;1.50;1.50;1.00
34176;PMS7003;20450;49.074;9.158;2022-12-29T13:44:34;2.75;1.50;1.00
34176;PMS7003;20450;49.074;9.158;2022-12-29T13:47:10;1.75;1.50;1.00
34176;PMS7003;20450;49.074;9.158;2022-12-29T13:49:51;1.25;1.25;1.25
34176;PMS7003;20450;49.074;9.158;2022-12-29T13:52:24;2.00;2.00;2.00
34176;PMS7003;20450;49.074;9.158;2022-12-29T13:55:05;1.00;1.00;1.00
34176;PMS7003;20450;49.074;9.158;2022-12-29T13:58:03;1.00;1.00;1.00
34176;PMS7003;20450;49.074;9.158;2022-12-29T14:00:58;1.75;1.75;1.00
34176;PMS7003;20450;49.074;9.158;2022-12-29T14:03:43;0.25;0.25;0.25
34176;PMS7003;20450;49.074;9.158;2022-12-29T14:06:20;2.25;1.00;1.00
34176;PMS7003;20450;49.074;9.158;2022-12-29T14:08:51;1.75;1.75;1.25
34176;PMS7003;20450;49.074;9.158;2022-12-29T14:11:23;1.00;1.00;1.00
34176;PMS7003;20450;49.074;9.158;2022-12-29T14:13:58;1.00;1.00;1.00
34176;PMS7003;20450;49.074;9.158;2022-12-29T14:16:40;2.00;1.00;1.00
34176;PMS7003;20450;49.074;9.158;2022-12-29T14:19:11;0.50;0.50;0.50
34176;PMS7003;20450;49.074;9.158;2022-12-29T14:21:49;0.00;0.00;0.00
34176;PMS7003;20450;49.074;9.158;2022-12-29T14:24:28;0.00;0.00;0.00
34176;PMS7003;20450;49.074;9.158;2022-12-29T14:36:54;1.25;0.75;0.75
34176;PMS7003;20450;49.074;9.158;2022-12-29T14:39:34;0.00;0.00;0.00
34176;PMS7003;20450;49.074;9.158;2022-12-29T14:42:05;1.00;1.00;0.50
34176;PMS7003;20450;49.074;9.158;2022-12-29T14:44:50;0.33;0.33;0.33
34176;PMS7003;20450;49.074;9.158;2022-12-29T14:47:24;1.67;1.67;1.67
34176;PMS7003;20450;49.074;9.158;2022-12-29T14:50:03;2.33;2.33;2.33
34176;PMS7003;20450;49.074;9.158;2022-12-29T14:52:35;4.00;4.00;4.00
34176;PMS7003;20450;49.074;9.158;2022-12-29T14:58:12;21.50;20.50;19.00
34176;PMS7003;20450;49.074;9.158;2022-12-29T15:00:45;18.75;18.75;18.00
34176;PMS7003;20450;49.074;9.158;2022-12-29T15:03:16;19.00;19.00;16.75
34176;PMS7003;20450;49.074;9.158;2022-12-29T15:06:13;22.75;21.25;18.75
34176;PMS7003;20450;49.074;9.158;2022-12-29T15:08:44;22.00;21.25;18.50
34176;PMS7003;20450;49.074;9.158;2022-12-29T15:11:18;11.00;9.50;9.00
34176;PMS7003;20450;49.074;9.158;2022-12-29T15:13:48;8.25;8.25;7.50
34176;PMS7003;20450;49.074;9.158;2022-12-29T15:16:22;6.00;6.00;6.00
34176;PMS7003;20450;49.074;9.158;2022-12-29T15:18:54;29.25;27.50;24.25
34176;PMS7003;20450;49.074;9.158;2022-12-29T15:21:22;17.25;16.50;16.50
34176;PMS7003;20450;49.074;9.158;2022-12-29T15:23:52;0.00;0.00;0.00
34176;PMS7003;20450;49.074;9.158;2022-12-29T15:26:20;1.00;1.00;1.00